sensor_id;sensor_type;location;lat;lon;timestamp;P1;durP1;ratioP1;P2;durP2;ratioP2
67804;SDS011;54603;45.638;11.714;2022-10-16T00:00:56;23.80;;;18.70;;
67804;SDS011;54603;45.638;11.714;2022-10-16T00:03:22;22.40;;;18.80;;
67804;SDS011;54603;45.638;11.714;2022-10-16T00:05:47;22.80;;;18.30;;
67804;SDS011;54603;45.638;11.714;2022-10-16T00:08:13;23.10;;;18.30;;
67804;SDS011;54603;45.638;11.714;2022-10-16T00:10:39;20.80;;;17.70;;
67804;SDS011;54603;45.638;11.714;2022-10-16T00:13:05;20.60;;;17.50;;
67804;SDS011;54603;45.638;11.714;2022-10-16T00:15:35;21.50;;;18.70;;
67804;SDS011;54603;45.638;11.714;2022-10-16T00:18:01;21.40;;;17.50;;
67804;SDS011;54603;45.638;11.714;2022-10-16T00:20:28;21.20;;;18.00;;
67804;SDS011;54603;45.638;11.714;2022-10-16T00:22:53;21.80;;;18.60;;
67804;SDS011;54603;45.638;11.714;2022-10-16T00:25:19;24.60;;;19.80;;
67804;SDS011;54603;45.638;11.714;2022-10-16T00:27:44;22.10;;;18.50;;
67804;SDS011;54603;45.638;11.714;2022-10-16T00:30:10;23.60;;;19.90;;
67804;SDS011;54603;45.638;11.714;2022-10-16T00:32:36;26.90;;;20.80;;
67804;SDS011;54603;45.638;11.714;2022-10-16T00:35:01;25.70;;;21.00;;
67804;SDS011;54603;45.638;11.714;2022-10-16T00:37:29;27.70;;;20.50;;
67804;SDS011;54603;45.638;11.714;2022-10-16T00:39:54;24.80;;;19.40;;
67804;SDS011;54603;45.638;11.714;2022-10-16T00:42:20;26.10;;;20.80;;
67804;SDS011;54603;45.638;11.714;2022-10-16T00:44:49;25.50;;;20.40;;
67804;SDS011;54603;45.638;11.714;2022-10-16T00:47:20;28.10;;;20.00;;
67804;SDS011;54603;45.638;11.714;2022-10-16T00:49:56;24.30;;;19.60;;
67804;SDS011;54603;45.638;11.714;2022-10-16T00:52:33;22.40;;;18.80;;
67804;SDS011;54603;45.638;11.714;2022-10-16T00:54:59;22.50;;;18.80;;
67804;SDS011;54603;45.638;11.714;2022-10-16T00:57:25;22.80;;;18.60;;
67804;SDS011;54603;45.638;11.714;2022-10-16T00:59:51;21.10;;;17.40;;
67804;SDS011;54603;45.638;11.714;2022-10-16T01:02:17;22.50;;;18.30;;
67804;SDS011;54603;45.638;11.714;2022-10-16T01:04:47;20.50;;;18.00;;
67804;SDS011;54603;45.638;11.714;2022-10-16T01:07:17;21.20;;;17.50;;
67804;SDS011;54603;45.638;11.714;2022-10-16T01:15:15;22.90;;;18.90;;
67804;SDS011;54603;45.638;11.714;2022-10-16T01:20:29;23.60;;;18.80;;
67804;SDS011;54603;45.638;11.714;2022-10-16T01:26:10;22.00;;;18.70;;
67804;SDS011;54603;45.638;11.714;2022-10-16T01:31:44;23.20;;;18.90;;
67804;SDS011;54603;45.638;11.714;2022-10-16T01:34:21;25.30;;;20.20;;
67804;SDS011;54603;45.638;11.714;2022-10-16T01:36:55;19.40;;;16.90;;
67804;SDS011;54603;45.638;11.714;2022-10-16T01:39:24;20.80;;;17.00;;
67804;SDS011;54603;45.638;11.714;2022-10-16T01:41:58;20.10;;;16.50;;
67804;SDS011;54603;45.638;11.714;2022-10-16T01:44:26;20.70;;;17.80;;
67804;SDS011;54603;45.638;11.714;2022-10-16T01:46:54;21.00;;;18.10;;
67804;SDS011;54603;45.638;11.714;2022-10-16T01:49:21;22.70;;;17.50;;
67804;SDS011;54603;45.638;11.714;2022-10-16T01:51:49;23.00;;;18.20;;
67804;SDS011;54603;45.638;11.714;2022-10-16T01:54:17;23.20;;;18.90;;
67804;SDS011;54603;45.638;11.714;2022-10-16T01:56:44;21.00;;;18.00;;
67804;SDS011;54603;45.638;11.714;2022-10-16T01:59:12;21.70;;;18.20;;
67804;SDS011;54603;45.638;11.714;2022-10-16T02:01:40;21.30;;;17.60;;
67804;SDS011;54603;45.638;11.714;2022-10-16T02:04:12;21.60;;;18.00;;
67804;SDS011;54603;45.638;11.714;2022-10-16T02:06:40;24.70;;;19.70;;
67804;SDS011;54603;45.638;11.714;2022-10-16T02:09:06;27.30;;;21.80;;
67804;SDS011;54603;45.638;11.714;2022-10-16T02:11:32;24.10;;;18.40;;
67804;SDS011;54603;45.638;11.714;2022-10-16T02:14:01;21.80;;;17.50;;
67804;SDS011;54603;45.638;11.714;2022-10-16T02:16:36;22.00;;;17.80;;
67804;SDS011;54603;45.638;11.714;2022-10-16T02:19:04;23.80;;;18.80;;
67804;SDS011;54603;45.638;11.714;2022-10-16T02:21:33;26.30;;;21.50;;
67804;SDS011;54603;45.638;11.714;2022-10-16T02:26:46;24.80;;;20.00;;
67804;SDS011;54603;45.638;11.714;2022-10-16T02:29:16;24.00;;;19.80;;
67804;SDS011;54603;45.638;11.714;2022-10-16T02:31:44;25.40;;;19.60;;
67804;SDS011;54603;45.638;11.714;2022-10-16T02:34:12;27.30;;;19.00;;
67804;SDS011;54603;45.638;11.714;2022-10-16T02:36:39;23.60;;;19.30;;
67804;SDS011;54603;45.638;11.714;2022-10-16T02:39:05;23.50;;;18.30;;
67804;SDS011;54603;45.638;11.714;2022-10-16T02:41:31;22.90;;;18.80;;
67804;SDS011;54603;45.638;11.714;2022-10-16T02:43:57;21.40;;;18.00;;
67804;SDS011;54603;45.638;11.714;2022-10-16T02:46:23;22.90;;;18.40;;
67804;SDS011;54603;45.638;11.714;2022-10-16T02:48:48;21.70;;;18.60;;
67804;SDS011;54603;45.638;11.714;2022-10-16T02:51:14;22.00;;;18.30;;
67804;SDS011;54603;45.638;11.714;2022-10-16T02:53:40;21.70;;;18.50;;
67804;SDS011;54603;45.638;11.714;2022-10-16T02:56:05;23.90;;;20.00;;
67804;SDS011;54603;45.638;11.714;2022-10-16T02:58:31;21.50;;;18.50;;
67804;SDS011;54603;45.638;11.714;2022-10-16T03:00:56;24.40;;;19.50;;
67804;SDS011;54603;45.638;11.714;2022-10-16T03:03:22;25.50;;;19.60;;
67804;SDS011;54603;45.638;11.714;2022-10-16T03:05:47;24.00;;;19.00;;
67804;SDS011;54603;45.638;11.714;2022-10-16T03:08:13;22.90;;;18.60;;
67804;SDS011;54603;45.638;11.714;2022-10-16T03:10:38;22.10;;;18.30;;
67804;SDS011;54603;45.638;11.714;2022-10-16T03:13:04;20.60;;;18.10;;
67804;SDS011;54603;45.638;11.714;2022-10-16T03:15:29;23.90;;;18.60;;
67804;SDS011;54603;45.638;11.714;2022-10-16T03:17:58;21.00;;;18.10;;
67804;SDS011;54603;45.638;11.714;2022-10-16T03:20:24;23.80;;;19.30;;
67804;SDS011;54603;45.638;11.714;2022-10-16T03:22:49;25.30;;;19.90;;
67804;SDS011;54603;45.638;11.714;2022-10-16T03:25:15;21.80;;;19.00;;
67804;SDS011;54603;45.638;11.714;2022-10-16T03:27:41;24.00;;;19.50;;
67804;SDS011;54603;45.638;11.714;2022-10-16T03:30:06;24.30;;;19.30;;
67804;SDS011;54603;45.638;11.714;2022-10-16T03:32:32;24.00;;;19.10;;
67804;SDS011;54603;45.638;11.714;2022-10-16T03:34:58;22.50;;;18.50;;
67804;SDS011;54603;45.638;11.714;2022-10-16T03:37:24;21.90;;;18.60;;
67804;SDS011;54603;45.638;11.714;2022-10-16T03:39:49;22.50;;;18.50;;
67804;SDS011;54603;45.638;11.714;2022-10-16T03:42:15;24.10;;;18.50;;
67804;SDS011;54603;45.638;11.714;2022-10-16T03:44:40;22.80;;;18.90;;
67804;SDS011;54603;45.638;11.714;2022-10-16T03:47:06;22.50;;;18.60;;
67804;SDS011;54603;45.638;11.714;2022-10-16T03:49:31;22.50;;;18.80;;
67804;SDS011;54603;45.638;11.714;2022-10-16T03:51:57;23.60;;;18.90;;
67804;SDS011;54603;45.638;11.714;2022-10-16T03:54:22;22.90;;;18.00;;
67804;SDS011;54603;45.638;11.714;2022-10-16T03:56:48;21.20;;;18.10;;
67804;SDS011;54603;45.638;11.714;2022-10-16T03:59:13;24.20;;;18.10;;
67804;SDS011;54603;45.638;11.714;2022-10-16T04:01:39;21.40;;;18.00;;
67804;SDS011;54603;45.638;11.714;2022-10-16T04:04:05;21.70;;;18.90;;
67804;SDS011;54603;45.638;11.714;2022-10-16T04:06:31;21.80;;;18.80;;
67804;SDS011;54603;45.638;11.714;2022-10-16T04:08:56;21.90;;;18.40;;
67804;SDS011;54603;45.638;11.714;2022-10-16T04:11:22;21.60;;;17.60;;
67804;SDS011;54603;45.638;11.714;2022-10-16T04:13:48;24.30;;;19.30;;
67804;SDS011;54603;45.638;11.714;2022-10-16T04:16:13;24.20;;;20.10;;
67804;SDS011;54603;45.638;11.714;2022-10-16T04:18:39;26.20;;;19.70;;
67804;SDS011;54603;45.638;11.714;2022-10-16T04:21:05;26.70;;;20.80;;
67804;SDS011;54603;45.638;11.714;2022-10-16T04:23:31;24.40;;;19.60;;
67804;SDS011;54603;45.638;11.714;2022-10-16T04:25:56;25.10;;;20.40;;
67804;SDS011;54603;45.638;11.714;2022-10-16T04:28:22;23.70;;;19.80;;
67804;SDS011;54603;45.638;11.714;2022-10-16T04:30:48;22.00;;;18.90;;
67804;SDS011;54603;45.638;11.714;2022-10-16T04:33:13;22.90;;;19.80;;
67804;SDS011;54603;45.638;11.714;2022-10-16T04:35:39;23.40;;;19.20;;
67804;SDS011;54603;45.638;11.714;2022-10-16T04:38:04;23.90;;;19.20;;
67804;SDS011;54603;45.638;11.714;2022-10-16T04:40:30;23.40;;;18.50;;
67804;SDS011;54603;45.638;11.714;2022-10-16T04:43:01;24.50;;;19.20;;
67804;SDS011;54603;45.638;11.714;2022-10-16T04:45:28;20.60;;;17.80;;
67804;SDS011;54603;45.638;11.714;2022-10-16T04:47:56;20.20;;;17.80;;
67804;SDS011;54603;45.638;11.714;2022-10-16T04:50:22;25.00;;;19.10;;
67804;SDS011;54603;45.638;11.714;2022-10-16T04:52:48;23.50;;;19.50;;
67804;SDS011;54603;45.638;11.714;2022-10-16T04:55:13;22.90;;;19.70;;
67804;SDS011;54603;45.638;11.714;2022-10-16T04:57:39;21.90;;;18.30;;
67804;SDS011;54603;45.638;11.714;2022-10-16T05:00:05;21.50;;;18.20;;
67804;SDS011;54603;45.638;11.714;2022-10-16T05:02:31;24.20;;;18.80;;
67804;SDS011;54603;45.638;11.714;2022-10-16T05:04:57;22.60;;;19.00;;
67804;SDS011;54603;45.638;11.714;2022-10-16T05:07:22;21.00;;;17.30;;
67804;SDS011;54603;45.638;11.714;2022-10-16T05:09:48;21.00;;;16.40;;
67804;SDS011;54603;45.638;11.714;2022-10-16T05:12:13;21.00;;;18.10;;
67804;SDS011;54603;45.638;11.714;2022-10-16T05:14:39;23.40;;;18.60;;
67804;SDS011;54603;45.638;11.714;2022-10-16T05:17:04;22.10;;;18.10;;
67804;SDS011;54603;45.638;11.714;2022-10-16T05:19:30;22.20;;;18.50;;
67804;SDS011;54603;45.638;11.714;2022-10-16T05:21:55;23.00;;;19.40;;
67804;SDS011;54603;45.638;11.714;2022-10-16T05:24:21;23.20;;;18.90;;
67804;SDS011;54603;45.638;11.714;2022-10-16T05:26:47;22.80;;;18.60;;
67804;SDS011;54603;45.638;11.714;2022-10-16T05:29:12;21.80;;;18.20;;
67804;SDS011;54603;45.638;11.714;2022-10-16T05:31:38;24.30;;;18.20;;
67804;SDS011;54603;45.638;11.714;2022-10-16T05:34:03;21.20;;;18.20;;
67804;SDS011;54603;45.638;11.714;2022-10-16T05:36:29;22.90;;;17.70;;
67804;SDS011;54603;45.638;11.714;2022-10-16T05:38:54;20.80;;;18.20;;
67804;SDS011;54603;45.638;11.714;2022-10-16T05:41:20;21.40;;;17.80;;
67804;SDS011;54603;45.638;11.714;2022-10-16T05:43:50;20.10;;;16.70;;
67804;SDS011;54603;45.638;11.714;2022-10-16T05:46:15;22.90;;;17.90;;
67804;SDS011;54603;45.638;11.714;2022-10-16T05:48:41;20.40;;;17.70;;
67804;SDS011;54603;45.638;11.714;2022-10-16T05:51:08;19.90;;;17.80;;
67804;SDS011;54603;45.638;11.714;2022-10-16T05:53:35;22.50;;;18.00;;
67804;SDS011;54603;45.638;11.714;2022-10-16T05:56:02;19.30;;;17.10;;
67804;SDS011;54603;45.638;11.714;2022-10-16T05:58:29;21.90;;;18.20;;
67804;SDS011;54603;45.638;11.714;2022-10-16T06:01:01;21.40;;;18.10;;
67804;SDS011;54603;45.638;11.714;2022-10-16T06:03:32;20.50;;;17.70;;
67804;SDS011;54603;45.638;11.714;2022-10-16T06:05:58;21.30;;;17.50;;
67804;SDS011;54603;45.638;11.714;2022-10-16T06:08:24;19.90;;;17.30;;
67804;SDS011;54603;45.638;11.714;2022-10-16T06:11:00;21.20;;;17.40;;
67804;SDS011;54603;45.638;11.714;2022-10-16T06:13:29;25.60;;;17.80;;
67804;SDS011;54603;45.638;11.714;2022-10-16T06:15:56;20.40;;;17.40;;
67804;SDS011;54603;45.638;11.714;2022-10-16T06:18:22;20.00;;;16.50;;
67804;SDS011;54603;45.638;11.714;2022-10-16T06:20:48;22.20;;;18.10;;
67804;SDS011;54603;45.638;11.714;2022-10-16T06:23:14;23.20;;;18.30;;
67804;SDS011;54603;45.638;11.714;2022-10-16T06:25:39;22.40;;;18.10;;
67804;SDS011;54603;45.638;11.714;2022-10-16T06:28:05;20.20;;;17.50;;
67804;SDS011;54603;45.638;11.714;2022-10-16T06:30:30;20.20;;;17.80;;
67804;SDS011;54603;45.638;11.714;2022-10-16T06:32:56;20.60;;;17.30;;
67804;SDS011;54603;45.638;11.714;2022-10-16T06:35:21;21.60;;;17.40;;
67804;SDS011;54603;45.638;11.714;2022-10-16T06:37:47;22.90;;;18.60;;
67804;SDS011;54603;45.638;11.714;2022-10-16T06:40:12;20.90;;;17.60;;
67804;SDS011;54603;45.638;11.714;2022-10-16T06:42:39;20.80;;;17.00;;
67804;SDS011;54603;45.638;11.714;2022-10-16T06:45:06;18.70;;;16.50;;
67804;SDS011;54603;45.638;11.714;2022-10-16T06:47:32;21.60;;;17.50;;
67804;SDS011;54603;45.638;11.714;2022-10-16T06:49:57;21.90;;;17.90;;
67804;SDS011;54603;45.638;11.714;2022-10-16T06:52:23;22.60;;;18.30;;
67804;SDS011;54603;45.638;11.714;2022-10-16T06:54:49;19.80;;;17.00;;
67804;SDS011;54603;45.638;11.714;2022-10-16T06:57:15;19.70;;;16.80;;
67804;SDS011;54603;45.638;11.714;2022-10-16T06:59:40;21.00;;;18.30;;
67804;SDS011;54603;45.638;11.714;2022-10-16T07:02:06;19.80;;;17.70;;
67804;SDS011;54603;45.638;11.714;2022-10-16T07:04:33;23.30;;;18.20;;
67804;SDS011;54603;45.638;11.714;2022-10-16T07:07:00;20.40;;;17.60;;
67804;SDS011;54603;45.638;11.714;2022-10-16T07:09:25;21.90;;;18.00;;
67804;SDS011;54603;45.638;11.714;2022-10-16T07:11:51;21.80;;;19.40;;
67804;SDS011;54603;45.638;11.714;2022-10-16T07:14:17;25.10;;;19.90;;
67804;SDS011;54603;45.638;11.714;2022-10-16T07:16:44;23.90;;;19.10;;
67804;SDS011;54603;45.638;11.714;2022-10-16T07:19:10;19.90;;;17.20;;
67804;SDS011;54603;45.638;11.714;2022-10-16T07:21:37;23.40;;;17.80;;
67804;SDS011;54603;45.638;11.714;2022-10-16T07:24:04;21.80;;;17.40;;
67804;SDS011;54603;45.638;11.714;2022-10-16T07:26:32;22.00;;;17.80;;
67804;SDS011;54603;45.638;11.714;2022-10-16T07:28:59;22.20;;;16.60;;
67804;SDS011;54603;45.638;11.714;2022-10-16T07:31:25;18.20;;;15.70;;
67804;SDS011;54603;45.638;11.714;2022-10-16T07:33:51;20.30;;;17.00;;
67804;SDS011;54603;45.638;11.714;2022-10-16T07:36:18;21.30;;;17.60;;
67804;SDS011;54603;45.638;11.714;2022-10-16T07:38:44;22.10;;;17.00;;
67804;SDS011;54603;45.638;11.714;2022-10-16T07:41:11;19.50;;;17.10;;
67804;SDS011;54603;45.638;11.714;2022-10-16T07:43:38;19.90;;;16.60;;
67804;SDS011;54603;45.638;11.714;2022-10-16T07:46:04;19.70;;;17.10;;
67804;SDS011;54603;45.638;11.714;2022-10-16T07:48:30;23.50;;;17.70;;
67804;SDS011;54603;45.638;11.714;2022-10-16T07:51:01;20.20;;;16.30;;
67804;SDS011;54603;45.638;11.714;2022-10-16T07:53:28;20.00;;;16.30;;
67804;SDS011;54603;45.638;11.714;2022-10-16T07:56:01;21.40;;;16.60;;
67804;SDS011;54603;45.638;11.714;2022-10-16T07:58:28;21.00;;;17.30;;
67804;SDS011;54603;45.638;11.714;2022-10-16T08:00:54;21.30;;;16.60;;
67804;SDS011;54603;45.638;11.714;2022-10-16T08:03:20;18.60;;;16.10;;
67804;SDS011;54603;45.638;11.714;2022-10-16T08:05:46;19.80;;;16.60;;
67804;SDS011;54603;45.638;11.714;2022-10-16T08:08:13;24.60;;;17.60;;
67804;SDS011;54603;45.638;11.714;2022-10-16T08:10:40;22.20;;;16.20;;
67804;SDS011;54603;45.638;11.714;2022-10-16T08:13:08;20.60;;;16.50;;
67804;SDS011;54603;45.638;11.714;2022-10-16T08:15:40;21.00;;;16.40;;
67804;SDS011;54603;45.638;11.714;2022-10-16T08:18:10;20.40;;;16.30;;
67804;SDS011;54603;45.638;11.714;2022-10-16T08:20:38;21.10;;;15.70;;
67804;SDS011;54603;45.638;11.714;2022-10-16T08:23:06;19.90;;;16.20;;
67804;SDS011;54603;45.638;11.714;2022-10-16T08:25:35;21.40;;;16.70;;
67804;SDS011;54603;45.638;11.714;2022-10-16T08:28:03;21.50;;;16.40;;
67804;SDS011;54603;45.638;11.714;2022-10-16T08:30:29;18.40;;;15.60;;
67804;SDS011;54603;45.638;11.714;2022-10-16T08:32:55;20.90;;;16.90;;
67804;SDS011;54603;45.638;11.714;2022-10-16T08:35:20;18.80;;;16.20;;
67804;SDS011;54603;45.638;11.714;2022-10-16T08:37:46;20.60;;;16.60;;
67804;SDS011;54603;45.638;11.714;2022-10-16T08:40:19;19.50;;;16.20;;
67804;SDS011;54603;45.638;11.714;2022-10-16T08:42:53;23.40;;;16.60;;
67804;SDS011;54603;45.638;11.714;2022-10-16T08:48:11;22.30;;;17.30;;
67804;SDS011;54603;45.638;11.714;2022-10-16T08:50:46;20.20;;;16.90;;
67804;SDS011;54603;45.638;11.714;2022-10-16T08:53:24;19.20;;;16.90;;
67804;SDS011;54603;45.638;11.714;2022-10-16T08:55:53;20.80;;;17.10;;
67804;SDS011;54603;45.638;11.714;2022-10-16T08:58:20;23.50;;;17.70;;
67804;SDS011;54603;45.638;11.714;2022-10-16T09:00:53;18.10;;;16.20;;
67804;SDS011;54603;45.638;11.714;2022-10-16T09:11:11;20.90;;;16.80;;
67804;SDS011;54603;45.638;11.714;2022-10-16T09:14:03;22.50;;;17.30;;
67804;SDS011;54603;45.638;11.714;2022-10-16T09:16:30;21.50;;;17.30;;
67804;SDS011;54603;45.638;11.714;2022-10-16T09:21:38;22.60;;;17.10;;
67804;SDS011;54603;45.638;11.714;2022-10-16T09:24:09;21.10;;;17.20;;
67804;SDS011;54603;45.638;11.714;2022-10-16T09:29:04;24.20;;;18.30;;
67804;SDS011;54603;45.638;11.714;2022-10-16T09:31:30;23.50;;;18.90;;
67804;SDS011;54603;45.638;11.714;2022-10-16T09:33:57;29.10;;;18.60;;
67804;SDS011;54603;45.638;11.714;2022-10-16T09:36:25;22.40;;;18.50;;
67804;SDS011;54603;45.638;11.714;2022-10-16T09:39:01;20.80;;;17.80;;
67804;SDS011;54603;45.638;11.714;2022-10-16T09:41:29;25.00;;;19.10;;
67804;SDS011;54603;45.638;11.714;2022-10-16T09:43:55;26.30;;;19.50;;
67804;SDS011;54603;45.638;11.714;2022-10-16T09:46:27;26.00;;;20.90;;
67804;SDS011;54603;45.638;11.714;2022-10-16T09:49:00;24.50;;;19.40;;
67804;SDS011;54603;45.638;11.714;2022-10-16T09:51:32;25.30;;;19.50;;
67804;SDS011;54603;45.638;11.714;2022-10-16T09:56:32;27.30;;;20.60;;
67804;SDS011;54603;45.638;11.714;2022-10-16T09:59:02;29.10;;;20.80;;
67804;SDS011;54603;45.638;11.714;2022-10-16T10:01:37;29.00;;;20.90;;
67804;SDS011;54603;45.638;11.714;2022-10-16T10:06:34;28.40;;;21.90;;
67804;SDS011;54603;45.638;11.714;2022-10-16T10:14:24;30.60;;;21.60;;
67804;SDS011;54603;45.638;11.714;2022-10-16T10:17:00;28.00;;;22.40;;
67804;SDS011;54603;45.638;11.714;2022-10-16T10:36:00;30.00;;;22.90;;
67804;SDS011;54603;45.638;11.714;2022-10-16T10:38:37;28.70;;;22.80;;
67804;SDS011;54603;45.638;11.714;2022-10-16T10:43:58;31.60;;;23.50;;
67804;SDS011;54603;45.638;11.714;2022-10-16T10:49:19;37.00;;;24.80;;
67804;SDS011;54603;45.638;11.714;2022-10-16T10:54:32;30.00;;;23.80;;
67804;SDS011;54603;45.638;11.714;2022-10-16T10:57:09;33.80;;;23.70;;
67804;SDS011;54603;45.638;11.714;2022-10-16T11:08:00;27.50;;;22.90;;
67804;SDS011;54603;45.638;11.714;2022-10-16T11:10:38;30.00;;;23.30;;
67804;SDS011;54603;45.638;11.714;2022-10-16T11:13:28;27.70;;;21.70;;
67804;SDS011;54603;45.638;11.714;2022-10-16T11:15:56;32.20;;;22.90;;
67804;SDS011;54603;45.638;11.714;2022-10-16T11:18:26;30.20;;;22.50;;
67804;SDS011;54603;45.638;11.714;2022-10-16T11:21:02;29.70;;;22.20;;
67804;SDS011;54603;45.638;11.714;2022-10-16T11:23:53;33.50;;;22.20;;
67804;SDS011;54603;45.638;11.714;2022-10-16T11:26:24;32.80;;;22.90;;
67804;SDS011;54603;45.638;11.714;2022-10-16T11:28:55;30.70;;;22.20;;
67804;SDS011;54603;45.638;11.714;2022-10-16T11:39:27;28.50;;;22.40;;
67804;SDS011;54603;45.638;11.714;2022-10-16T11:42:10;29.20;;;21.50;;
67804;SDS011;54603;45.638;11.714;2022-10-16T11:47:37;28.30;;;21.10;;
67804;SDS011;54603;45.638;11.714;2022-10-16T11:55:23;27.10;;;21.60;;
67804;SDS011;54603;45.638;11.714;2022-10-16T11:57:52;28.20;;;21.90;;
67804;SDS011;54603;45.638;11.714;2022-10-16T12:00:24;29.40;;;22.00;;
67804;SDS011;54603;45.638;11.714;2022-10-16T12:08:31;26.80;;;20.30;;
67804;SDS011;54603;45.638;11.714;2022-10-16T12:13:48;27.10;;;21.30;;
67804;SDS011;54603;45.638;11.714;2022-10-16T12:18:40;24.70;;;20.20;;
67804;SDS011;54603;45.638;11.714;2022-10-16T12:21:07;25.20;;;20.50;;
67804;SDS011;54603;45.638;11.714;2022-10-16T12:26:12;27.50;;;20.30;;
67804;SDS011;54603;45.638;11.714;2022-10-16T12:28:38;26.50;;;20.30;;
67804;SDS011;54603;45.638;11.714;2022-10-16T12:31:06;25.30;;;19.80;;
67804;SDS011;54603;45.638;11.714;2022-10-16T12:33:42;26.10;;;19.90;;
67804;SDS011;54603;45.638;11.714;2022-10-16T12:36:33;22.00;;;18.80;;
67804;SDS011;54603;45.638;11.714;2022-10-16T12:38:59;23.70;;;19.50;;
67804;SDS011;54603;45.638;11.714;2022-10-16T12:41:36;23.90;;;19.10;;
67804;SDS011;54603;45.638;11.714;2022-10-16T12:44:05;22.90;;;18.60;;
67804;SDS011;54603;45.638;11.714;2022-10-16T12:46:46;22.50;;;19.20;;
67804;SDS011;54603;45.638;11.714;2022-10-16T12:51:37;24.60;;;19.30;;
67804;SDS011;54603;45.638;11.714;2022-10-16T13:00:21;23.70;;;18.00;;
67804;SDS011;54603;45.638;11.714;2022-10-16T13:08:39;22.90;;;17.40;;
67804;SDS011;54603;45.638;11.714;2022-10-16T13:16:54;22.70;;;18.00;;
67804;SDS011;54603;45.638;11.714;2022-10-16T13:22:14;24.20;;;18.40;;
67804;SDS011;54603;45.638;11.714;2022-10-16T13:24:47;21.40;;;17.60;;
67804;SDS011;54603;45.638;11.714;2022-10-16T13:27:24;23.00;;;18.50;;
67804;SDS011;54603;45.638;11.714;2022-10-16T13:29:52;21.20;;;18.10;;
67804;SDS011;54603;45.638;11.714;2022-10-16T13:32:20;21.60;;;18.50;;
67804;SDS011;54603;45.638;11.714;2022-10-16T13:34:47;18.50;;;15.00;;
67804;SDS011;54603;45.638;11.714;2022-10-16T13:37:21;23.60;;;18.50;;
67804;SDS011;54603;45.638;11.714;2022-10-16T13:39:48;21.10;;;18.30;;
67804;SDS011;54603;45.638;11.714;2022-10-16T13:42:28;23.90;;;18.00;;
67804;SDS011;54603;45.638;11.714;2022-10-16T13:44:55;21.90;;;17.70;;
67804;SDS011;54603;45.638;11.714;2022-10-16T13:47:26;22.50;;;17.20;;
67804;SDS011;54603;45.638;11.714;2022-10-16T13:50:04;21.60;;;17.60;;
67804;SDS011;54603;45.638;11.714;2022-10-16T13:52:31;23.30;;;18.50;;
67804;SDS011;54603;45.638;11.714;2022-10-16T13:54:57;22.20;;;16.80;;
67804;SDS011;54603;45.638;11.714;2022-10-16T13:57:23;21.50;;;17.10;;
67804;SDS011;54603;45.638;11.714;2022-10-16T13:59:49;21.90;;;17.60;;
67804;SDS011;54603;45.638;11.714;2022-10-16T14:02:31;22.60;;;18.30;;
67804;SDS011;54603;45.638;11.714;2022-10-16T14:05:02;22.50;;;17.90;;
67804;SDS011;54603;45.638;11.714;2022-10-16T14:07:30;19.80;;;17.60;;
67804;SDS011;54603;45.638;11.714;2022-10-16T14:09:58;21.70;;;17.10;;
67804;SDS011;54603;45.638;11.714;2022-10-16T14:12:26;20.80;;;17.40;;
67804;SDS011;54603;45.638;11.714;2022-10-16T14:14:52;22.40;;;17.50;;
67804;SDS011;54603;45.638;11.714;2022-10-16T14:17:20;23.50;;;17.80;;
67804;SDS011;54603;45.638;11.714;2022-10-16T14:19:49;22.90;;;18.10;;
67804;SDS011;54603;45.638;11.714;2022-10-16T14:22:32;24.20;;;17.90;;
67804;SDS011;54603;45.638;11.714;2022-10-16T14:24:59;23.40;;;18.80;;
67804;SDS011;54603;45.638;11.714;2022-10-16T14:27:28;21.00;;;18.10;;
67804;SDS011;54603;45.638;11.714;2022-10-16T14:32:32;25.40;;;16.80;;
67804;SDS011;54603;45.638;11.714;2022-10-16T14:34:58;26.70;;;19.30;;
67804;SDS011;54603;45.638;11.714;2022-10-16T14:37:27;22.20;;;18.00;;
67804;SDS011;54603;45.638;11.714;2022-10-16T14:39:54;24.90;;;19.00;;
67804;SDS011;54603;45.638;11.714;2022-10-16T14:42:21;24.00;;;18.60;;
67804;SDS011;54603;45.638;11.714;2022-10-16T14:44:53;29.30;;;19.50;;
67804;SDS011;54603;45.638;11.714;2022-10-16T14:47:21;25.20;;;19.20;;
67804;SDS011;54603;45.638;11.714;2022-10-16T14:49:50;23.50;;;18.60;;
67804;SDS011;54603;45.638;11.714;2022-10-16T14:52:17;25.10;;;19.20;;
67804;SDS011;54603;45.638;11.714;2022-10-16T14:54:47;24.40;;;19.30;;
67804;SDS011;54603;45.638;11.714;2022-10-16T14:57:15;26.30;;;19.20;;
67804;SDS011;54603;45.638;11.714;2022-10-16T14:59:43;23.70;;;18.00;;
67804;SDS011;54603;45.638;11.714;2022-10-16T15:04:57;25.40;;;19.80;;
67804;SDS011;54603;45.638;11.714;2022-10-16T15:07:23;25.90;;;19.40;;
67804;SDS011;54603;45.638;11.714;2022-10-16T15:09:49;23.90;;;19.00;;
67804;SDS011;54603;45.638;11.714;2022-10-16T15:12:16;24.50;;;18.90;;
67804;SDS011;54603;45.638;11.714;2022-10-16T15:14:42;24.50;;;19.20;;
67804;SDS011;54603;45.638;11.714;2022-10-16T15:17:11;24.00;;;19.20;;
67804;SDS011;54603;45.638;11.714;2022-10-16T15:19:36;22.70;;;19.20;;
67804;SDS011;54603;45.638;11.714;2022-10-16T15:22:02;24.30;;;19.70;;
67804;SDS011;54603;45.638;11.714;2022-10-16T15:24:27;24.00;;;19.10;;
67804;SDS011;54603;45.638;11.714;2022-10-16T15:26:53;35.90;;;19.10;;
67804;SDS011;54603;45.638;11.714;2022-10-16T15:29:18;26.30;;;19.00;;
67804;SDS011;54603;45.638;11.714;2022-10-16T15:31:44;23.00;;;19.70;;
67804;SDS011;54603;45.638;11.714;2022-10-16T15:34:12;23.20;;;18.20;;
67804;SDS011;54603;45.638;11.714;2022-10-16T15:36:38;21.90;;;18.70;;
67804;SDS011;54603;45.638;11.714;2022-10-16T15:39:15;23.10;;;19.30;;
67804;SDS011;54603;45.638;11.714;2022-10-16T15:41:42;20.70;;;18.50;;
67804;SDS011;54603;45.638;11.714;2022-10-16T15:44:09;22.90;;;18.80;;
67804;SDS011;54603;45.638;11.714;2022-10-16T15:46:35;21.40;;;19.10;;
67804;SDS011;54603;45.638;11.714;2022-10-16T15:49:02;25.30;;;19.40;;
67804;SDS011;54603;45.638;11.714;2022-10-16T15:51:28;26.80;;;20.10;;
67804;SDS011;54603;45.638;11.714;2022-10-16T15:53:57;23.80;;;19.50;;
67804;SDS011;54603;45.638;11.714;2022-10-16T15:56:24;22.50;;;19.40;;
67804;SDS011;54603;45.638;11.714;2022-10-16T15:58:51;24.50;;;20.10;;
67804;SDS011;54603;45.638;11.714;2022-10-16T16:01:18;24.40;;;18.70;;
67804;SDS011;54603;45.638;11.714;2022-10-16T16:03:44;24.00;;;19.00;;
67804;SDS011;54603;45.638;11.714;2022-10-16T16:06:14;27.00;;;18.70;;
67804;SDS011;54603;45.638;11.714;2022-10-16T16:08:48;24.40;;;18.90;;
67804;SDS011;54603;45.638;11.714;2022-10-16T16:11:19;23.00;;;18.80;;
67804;SDS011;54603;45.638;11.714;2022-10-16T16:13:45;22.00;;;17.80;;
67804;SDS011;54603;45.638;11.714;2022-10-16T16:16:13;22.80;;;16.00;;
67804;SDS011;54603;45.638;11.714;2022-10-16T16:18:40;22.30;;;17.10;;
67804;SDS011;54603;45.638;11.714;2022-10-16T16:21:06;22.60;;;18.20;;
67804;SDS011;54603;45.638;11.714;2022-10-16T16:23:32;26.00;;;19.50;;
67804;SDS011;54603;45.638;11.714;2022-10-16T16:26:04;24.80;;;18.70;;
67804;SDS011;54603;45.638;11.714;2022-10-16T16:28:33;24.20;;;18.70;;